createdAt,value
2022-12-03T00:01:16.431Z,101309.20
2022-12-03T00:03:43.648Z,101311.91
2022-12-03T00:06:11.039Z,101310.25
2022-12-03T00:08:38.294Z,101310.04
2022-12-03T00:11:05.749Z,101306.98
2022-12-03T00:13:33.002Z,101305.17
2022-12-03T00:16:00.222Z,101303.48
2022-12-03T00:18:27.516Z,101303.16
2022-12-03T00:20:54.576Z,101300.71
2022-12-03T00:23:21.917Z,101303.05
2022-12-03T00:25:49.090Z,101301.99
2022-12-03T00:28:16.172Z,101300.20
2022-12-03T00:30:43.609Z,101300.19
2022-12-03T00:33:11.023Z,101301.92
2022-12-03T00:35:38.176Z,101297.29
2022-12-03T00:38:05.529Z,101295.08
2022-12-03T00:40:32.712Z,101292.31
2022-12-03T00:42:59.770Z,101293.78
2022-12-03T00:45:26.954Z,101289.27
2022-12-03T00:47:54.017Z,101288.64
2022-12-03T00:50:22.104Z,101290.15
2022-12-03T00:52:49.833Z,101290.28
2022-12-03T00:55:17.231Z,101294.95
2022-12-03T00:57:44.335Z,101292.19
2022-12-03T01:00:15.726Z,101292.36
2022-12-03T01:02:43.074Z,101290.13
2022-12-03T01:05:11.737Z,101288.04
2022-12-03T01:07:38.985Z,101284.48
2022-12-03T01:10:07.079Z,101283.59
2022-12-03T01:12:34.281Z,101282.30
2022-12-03T01:15:01.404Z,101281.56
2022-12-03T01:17:28.497Z,101278.31
2022-12-03T01:19:55.654Z,101277.17
2022-12-03T01:22:22.988Z,101281.09
2022-12-03T01:24:50.379Z,101280.96
2022-12-03T01:27:18.149Z,101276.33
2022-12-03T01:29:45.227Z,101273.52
2022-12-03T01:32:19.789Z,101275.11
2022-12-03T01:34:47.904Z,101276.14
2022-12-03T01:37:15.567Z,101276.64
2022-12-03T01:39:43.130Z,101277.55
2022-12-03T01:42:13.909Z,101275.95
2022-12-03T01:44:42.254Z,101275.71
2022-12-03T01:47:14.084Z,101274.48
2022-12-03T01:49:44.834Z,101273.48
2022-12-03T01:52:15.162Z,101274.73
2022-12-03T01:54:47.602Z,101272.78
2022-12-03T01:57:23.538Z,101275.38
2022-12-03T01:59:51.564Z,101273.01
2022-12-03T02:02:23.932Z,101271.77
2022-12-03T02:04:53.393Z,101268.10
2022-12-03T02:07:24.589Z,101270.95
2022-12-03T02:09:51.940Z,101273.11
2022-12-03T02:12:22.675Z,101274.13
2022-12-03T02:14:50.620Z,101274.81
2022-12-03T02:17:19.133Z,101276.20
2022-12-03T02:19:47.493Z,101274.84
2022-12-03T02:22:27.964Z,101273.87
2022-12-03T02:25:03.422Z,101274.14
2022-12-03T02:27:31.206Z,101276.01
2022-12-03T02:29:58.941Z,101277.22
2022-12-03T02:32:26.116Z,101278.56
2022-12-03T02:34:54.111Z,101275.96
2022-12-03T02:37:24.702Z,101278.52
2022-12-03T02:39:55.247Z,101275.30
2022-12-03T02:42:39.410Z,101272.85
2022-12-03T02:45:12.189Z,101274.33
2022-12-03T02:47:45.751Z,101274.19
2022-12-03T02:50:16.401Z,101273.86
2022-12-03T02:52:46.003Z,101274.05
2022-12-03T02:55:16.121Z,101272.73
2022-12-03T02:57:45.472Z,101269.48
2022-12-03T03:00:15.130Z,101271.33
2022-12-03T03:02:43.578Z,101271.37
2022-12-03T03:05:13.221Z,101271.73
2022-12-03T03:07:41.219Z,101269.02
2022-12-03T03:10:12.482Z,101270.93
2022-12-03T03:12:40.574Z,101271.09
2022-12-03T03:15:10.718Z,101269.47
2022-12-03T03:17:39.034Z,101268.45
2022-12-03T03:20:09.363Z,101269.04
2022-12-03T03:22:38.522Z,101266.61
2022-12-03T03:25:08.447Z,101268.48
2022-12-03T03:27:36.395Z,101264.13
2022-12-03T03:30:04.323Z,101265.95
2022-12-03T03:32:32.383Z,101261.31
2022-12-03T03:35:01.788Z,101259.41
2022-12-03T03:37:30.054Z,101260.94
2022-12-03T03:39:57.727Z,101258.65
2022-12-03T03:42:26.018Z,101262.33
2022-12-03T03:44:53.594Z,101262.71
2022-12-03T03:47:23.950Z,101260.64
2022-12-03T03:49:51.554Z,101258.00
2022-12-03T03:52:18.929Z,101254.98
2022-12-03T03:54:46.425Z,101249.98
2022-12-03T03:57:13.678Z,101248.21
2022-12-03T03:59:41.340Z,101247.47
2022-12-03T04:02:16.462Z,101249.16
2022-12-03T04:04:43.729Z,101248.63
2022-12-03T04:07:10.878Z,101253.13
2022-12-03T04:09:38.236Z,101254.73
2022-12-03T04:12:23.310Z,101253.95
2022-12-03T04:14:50.436Z,101254.55
2022-12-03T04:17:17.582Z,101254.20
2022-12-03T04:19:44.768Z,101257.73
2022-12-03T04:22:29.727Z,101255.77
2022-12-03T04:25:17.356Z,101252.23
2022-12-03T04:28:04.578Z,101253.20
2022-12-03T04:30:32.178Z,101250.29
2022-12-03T04:33:17.002Z,101248.45
2022-12-03T04:35:44.330Z,101245.95
2022-12-03T04:38:11.917Z,101241.77
2022-12-03T04:41:05.186Z,101245.05
2022-12-03T04:43:34.651Z,101241.67
2022-12-03T04:46:02.857Z,101242.21
2022-12-03T04:48:30.326Z,101242.92
2022-12-03T04:50:57.401Z,101240.75
2022-12-03T04:53:24.717Z,101234.52
2022-12-03T04:55:52.278Z,101235.93
2022-12-03T04:58:19.735Z,101236.08
2022-12-03T05:00:46.884Z,101240.45
2022-12-03T05:03:14.343Z,101239.79
2022-12-03T05:05:41.625Z,101236.25
2022-12-03T05:08:10.442Z,101232.78
2022-12-03T05:10:37.643Z,101227.94
2022-12-03T05:13:04.786Z,101228.91
2022-12-03T05:15:31.941Z,101234.17
2022-12-03T05:17:59.088Z,101233.63
2022-12-03T05:20:49.772Z,101231.63
2022-12-03T05:23:20.852Z,101233.20
2022-12-03T05:25:48.289Z,101233.70
2022-12-03T05:28:16.360Z,101232.13
2022-12-03T05:30:43.694Z,101234.62
2022-12-03T05:33:11.006Z,101234.01
2022-12-03T05:35:38.065Z,101230.89
2022-12-03T05:38:05.141Z,101229.59
2022-12-03T05:40:32.292Z,101223.60
2022-12-03T05:43:01.701Z,101222.56
2022-12-03T05:45:30.384Z,101212.64
2022-12-03T05:47:58.454Z,101212.82
2022-12-03T05:50:28.088Z,101215.55
2022-12-03T05:52:55.851Z,101218.83
2022-12-03T05:55:23.316Z,101216.27
2022-12-03T05:57:50.664Z,101213.00
2022-12-03T06:00:20.829Z,101210.21
2022-12-03T06:02:48.315Z,101211.07
2022-12-03T06:05:19.505Z,101210.61
2022-12-03T06:07:46.992Z,101214.83
2022-12-03T06:10:16.722Z,101213.73
2022-12-03T06:12:44.371Z,101207.83
2022-12-03T06:15:14.184Z,101209.63
2022-12-03T06:17:41.824Z,101212.45
2022-12-03T06:20:11.843Z,101208.95
2022-12-03T06:22:38.954Z,101212.11
2022-12-03T06:25:07.397Z,101216.98
2022-12-03T06:27:35.004Z,101219.01
2022-12-03T06:30:02.462Z,101221.52
2022-12-03T06:32:29.940Z,101223.27
2022-12-03T06:34:57.379Z,101224.18
2022-12-03T06:37:24.727Z,101226.98
2022-12-03T06:39:51.876Z,101230.52
2022-12-03T06:42:19.027Z,101235.19
2022-12-03T06:44:46.280Z,101238.27
2022-12-03T06:47:13.840Z,101238.05
2022-12-03T06:49:41.287Z,101237.52
2022-12-03T06:52:08.497Z,101239.48
2022-12-03T06:54:35.817Z,101241.06
2022-12-03T06:57:03.365Z,101244.44
2022-12-03T06:59:34.304Z,101249.46
2022-12-03T07:02:02.079Z,101244.08
2022-12-03T07:04:29.263Z,101241.73
2022-12-03T07:06:56.357Z,101244.09
2022-12-03T07:09:23.624Z,101247.23
2022-12-03T07:11:50.719Z,101246.05
2022-12-03T07:14:17.850Z,101239.14
2022-12-03T07:16:44.954Z,101237.30
2022-12-03T07:19:12.870Z,101237.48
2022-12-03T07:21:40.006Z,101235.61
2022-12-03T07:24:07.582Z,101235.73
2022-12-03T07:26:35.016Z,101234.18
2022-12-03T07:29:02.332Z,101234.27
2022-12-03T07:31:30.240Z,101232.61
2022-12-03T07:33:57.670Z,101232.73
2022-12-03T07:36:24.939Z,101229.66
2022-12-03T07:38:52.289Z,101226.91
2022-12-03T07:41:19.652Z,101223.09
2022-12-03T07:43:47.128Z,101223.70
2022-12-03T07:46:15.833Z,101219.41
2022-12-03T07:48:45.810Z,101221.70
2022-12-03T07:51:15.372Z,101223.88
2022-12-03T07:53:43.039Z,101220.34
2022-12-03T07:56:11.270Z,101219.80
2022-12-03T07:58:38.925Z,101219.23
2022-12-03T08:01:06.280Z,101214.48
2022-12-03T08:03:33.537Z,101216.39
2022-12-03T08:06:00.990Z,101217.05
2022-12-03T08:08:28.177Z,101221.74
2022-12-03T08:10:55.300Z,101219.77
2022-12-03T08:13:22.463Z,101222.83
2022-12-03T08:15:49.898Z,101217.46
2022-12-03T08:18:19.777Z,101217.08
2022-12-03T08:20:49.041Z,101211.48
2022-12-03T08:23:19.043Z,101205.35
2022-12-03T08:25:48.690Z,101209.80
2022-12-03T08:28:19.158Z,101216.08
2022-12-03T08:30:48.752Z,101214.30
2022-12-03T08:33:27.998Z,101218.48
2022-12-03T08:35:56.276Z,101220.14
2022-12-03T08:38:26.331Z,101222.46
2022-12-03T08:40:55.842Z,101222.02
2022-12-03T08:43:25.431Z,101220.98
2022-12-03T08:45:54.138Z,101224.95
2022-12-03T08:48:36.916Z,101220.75
2022-12-03T08:51:20.019Z,101226.10
2022-12-03T08:53:53.308Z,101225.67
2022-12-03T08:56:26.181Z,101222.98
2022-12-03T08:58:57.057Z,101225.95
2022-12-03T09:01:43.090Z,101218.04
2022-12-03T09:04:24.068Z,101215.02
2022-12-03T09:06:52.290Z,101211.02
2022-12-03T09:09:19.907Z,101210.86
2022-12-03T09:11:47.612Z,101211.63
2022-12-03T09:14:18.712Z,101215.73
2022-12-03T09:16:46.375Z,101213.75
2022-12-03T09:19:14.007Z,101212.29
2022-12-03T09:21:41.753Z,101208.08
2022-12-03T09:24:09.562Z,101206.77
2022-12-03T09:26:36.765Z,101201.34
2022-12-03T09:29:08.939Z,101199.33
2022-12-03T09:31:39.009Z,101201.05
2022-12-03T09:34:07.749Z,101195.37
2022-12-03T09:36:34.994Z,101196.91
2022-12-03T09:39:02.248Z,101192.52
2022-12-03T09:41:30.206Z,101194.19
2022-12-03T09:44:05.834Z,101189.44
2022-12-03T09:46:34.822Z,101185.02
2022-12-03T09:49:03.449Z,101187.06
2022-12-03T09:51:36.016Z,101188.52
2022-12-03T09:54:04.468Z,101187.13
2022-12-03T09:56:31.958Z,101187.86
2022-12-03T09:58:59.309Z,101187.52
2022-12-03T10:01:30.383Z,101185.27
2022-12-03T10:03:58.484Z,101184.52
2022-12-03T10:06:26.391Z,101182.41
2022-12-03T10:08:56.206Z,101181.47
2022-12-03T10:11:26.251Z,101177.89
2022-12-03T10:13:54.002Z,101174.36
2022-12-03T10:16:22.580Z,101171.37
2022-12-03T10:18:52.485Z,101172.68
2022-12-03T10:21:25.268Z,101166.24
2022-12-03T10:24:12.591Z,101170.27
2022-12-03T10:26:41.870Z,101165.60
2022-12-03T10:29:15.001Z,101164.64
2022-12-03T10:31:42.172Z,101169.67
2022-12-03T10:34:09.910Z,101171.21
2022-12-03T10:36:37.359Z,101170.02
2022-12-03T10:39:13.829Z,101167.61
2022-12-03T10:41:42.280Z,101167.67
2022-12-03T10:44:20.142Z,101165.35
2022-12-03T10:46:58.735Z,101164.31
2022-12-03T10:49:26.487Z,101160.35
2022-12-03T10:51:53.638Z,101154.18
2022-12-03T10:54:23.210Z,101149.04
2022-12-03T10:56:52.580Z,101151.77
2022-12-03T10:59:23.195Z,101148.77
2022-12-03T11:01:51.135Z,101151.60
2022-12-03T11:04:33.378Z,101147.33
2022-12-03T11:07:02.854Z,101143.63
2022-12-03T11:09:33.181Z,101146.85
2022-12-03T11:12:07.349Z,101149.64
2022-12-03T11:15:15.188Z,101145.73
2022-12-03T11:17:50.996Z,101147.81
2022-12-03T11:20:52.681Z,101144.38
2022-12-03T11:23:57.243Z,101153.05
2022-12-03T11:27:02.958Z,101155.66
2022-12-03T11:29:51.547Z,101158.04
2022-12-03T11:32:49.506Z,101162.02
2022-12-03T11:35:27.525Z,101150.73
2022-12-03T11:37:55.391Z,101138.75
2022-12-03T11:40:37.729Z,101139.10
2022-12-03T11:43:11.095Z,101148.69
2022-12-03T11:45:41.113Z,101146.96
2022-12-03T11:48:18.930Z,101146.82
2022-12-03T11:50:51.587Z,101139.92
2022-12-03T11:53:24.817Z,101131.09
2022-12-03T11:56:06.530Z,101125.34
2022-12-03T11:58:34.551Z,101121.29
2022-12-03T12:01:05.797Z,101118.09
2022-12-03T12:03:34.658Z,101120.02
2022-12-03T12:06:10.726Z,101115.10
2022-12-03T12:08:39.535Z,101119.81
2022-12-03T12:11:17.231Z,101115.52
2022-12-03T12:13:56.184Z,101115.44
2022-12-03T12:16:51.458Z,101120.27
2022-12-03T12:19:49.755Z,101119.18
2022-12-03T12:22:32.800Z,101122.98
2022-12-03T12:25:01.279Z,101122.71
2022-12-03T12:27:36.044Z,101122.48
2022-12-03T12:30:05.648Z,101116.52
2022-12-03T12:32:40.110Z,101111.14
2022-12-03T12:35:17.318Z,101116.10
2022-12-03T12:37:59.766Z,101111.48
2022-12-03T12:40:30.646Z,101109.11
2022-12-03T12:42:59.534Z,101107.34
2022-12-03T12:45:28.769Z,101114.66
2022-12-03T12:48:09.297Z,101114.08
2022-12-03T12:50:38.083Z,101116.27
2022-12-03T12:53:13.533Z,101114.70
2022-12-03T12:55:40.990Z,101118.00
2022-12-03T12:58:14.958Z,101120.23
2022-12-03T13:00:42.134Z,101119.28
2022-12-03T13:03:11.907Z,101118.16
2022-12-03T13:05:42.689Z,101116.23
2022-12-03T13:08:23.842Z,101113.95
2022-12-03T13:10:51.693Z,101108.59
2022-12-03T13:13:23.607Z,101108.65
2022-12-03T13:16:00.097Z,101110.16
2022-12-03T13:18:47.110Z,101109.42
2022-12-03T13:21:23.965Z,101111.20
2022-12-03T13:23:52.965Z,101116.38
2022-12-03T13:26:34.666Z,101117.70
2022-12-03T13:29:13.368Z,101117.16
2022-12-03T13:31:44.121Z,101113.09
2022-12-03T13:34:18.014Z,101120.53
2022-12-03T13:36:51.966Z,101119.40
2022-12-03T13:39:28.533Z,101123.40
2022-12-03T13:42:14.312Z,101123.58
2022-12-03T13:44:46.757Z,101122.42
2022-12-03T13:47:20.264Z,101120.23
2022-12-03T13:49:53.499Z,101123.94
2022-12-03T13:52:23.265Z,101121.81
2022-12-03T13:54:52.944Z,101120.16
2022-12-03T13:57:22.541Z,101122.34
2022-12-03T13:59:49.830Z,101125.78
2022-12-03T14:02:17.320Z,101124.59
2022-12-03T14:04:44.746Z,101117.70
2022-12-03T14:07:11.908Z,101121.98
2022-12-03T14:09:39.042Z,101117.49
2022-12-03T14:12:24.897Z,101119.79
2022-12-03T14:14:52.405Z,101126.27
2022-12-03T14:17:19.541Z,101122.67
2022-12-03T14:19:47.050Z,101123.17
2022-12-03T14:22:14.357Z,101122.71
2022-12-03T14:24:44.989Z,101121.70
2022-12-03T14:27:12.244Z,101117.44
2022-12-03T14:29:39.707Z,101116.79
2022-12-03T14:32:07.070Z,101118.23
2022-12-03T14:34:34.350Z,101120.59
2022-12-03T14:37:02.096Z,101123.49
2022-12-03T14:39:29.629Z,101130.95
2022-12-03T14:42:15.722Z,101129.30
2022-12-03T14:44:44.148Z,101127.13
2022-12-03T14:47:26.886Z,101128.52
2022-12-03T14:49:54.713Z,101125.79
2022-12-03T14:52:22.325Z,101124.80
2022-12-03T14:54:49.541Z,101119.31
2022-12-03T14:57:17.370Z,101123.54
2022-12-03T14:59:46.004Z,101123.91
2022-12-03T15:02:14.410Z,101126.88
2022-12-03T15:04:42.812Z,101128.86
2022-12-03T15:07:10.367Z,101131.45
2022-12-03T15:09:37.871Z,101134.37
2022-12-03T15:12:05.483Z,101142.96
2022-12-03T15:14:32.886Z,101142.91
2022-12-03T15:17:00.992Z,101143.41
2022-12-03T15:19:28.679Z,101143.81
2022-12-03T15:21:55.768Z,101146.23
2022-12-03T15:24:23.092Z,101154.45
2022-12-03T15:26:52.393Z,101156.14
2022-12-03T15:29:19.570Z,101153.95
2022-12-03T15:31:47.259Z,101156.52
2022-12-03T15:34:18.864Z,101157.02
2022-12-03T15:36:49.419Z,101158.88
2022-12-03T15:39:16.670Z,101160.73
2022-12-03T15:41:44.401Z,101156.47
2022-12-03T15:44:11.782Z,101157.89
2022-12-03T15:46:38.994Z,101158.11
2022-12-03T15:49:06.565Z,101157.77
2022-12-03T15:51:33.724Z,101161.58
2022-12-03T15:54:01.079Z,101162.12
2022-12-03T15:56:28.434Z,101164.02
2022-12-03T15:58:55.791Z,101164.86
2022-12-03T16:01:23.080Z,101171.05
2022-12-03T16:03:50.429Z,101168.00
2022-12-03T16:06:18.284Z,101165.20
2022-12-03T16:08:46.167Z,101169.11
2022-12-03T16:11:13.381Z,101169.16
2022-12-03T16:13:40.535Z,101176.40
2022-12-03T16:16:08.408Z,101170.23
2022-12-03T16:18:35.631Z,101169.04
2022-12-03T16:21:02.905Z,101166.98
2022-12-03T16:23:30.261Z,101173.80
2022-12-03T16:25:57.339Z,101174.13
2022-12-03T16:28:24.974Z,101178.86
2022-12-03T16:30:52.291Z,101176.23
2022-12-03T16:33:25.679Z,101179.88
2022-12-03T16:35:55.758Z,101181.70
2022-12-03T16:38:23.217Z,101184.38
2022-12-03T16:40:50.553Z,101184.02
2022-12-03T16:43:18.012Z,101178.00
2022-12-03T16:46:20.734Z,101181.05
2022-12-03T16:48:48.750Z,101183.26
2022-12-03T16:51:16.125Z,101182.57
2022-12-03T16:53:43.329Z,101182.92
2022-12-03T16:56:11.503Z,101184.15
2022-12-03T16:58:38.669Z,101180.41
2022-12-03T17:01:06.187Z,101180.98
2022-12-03T17:03:34.247Z,101179.48
2022-12-03T17:06:01.510Z,101180.34
2022-12-03T17:08:29.047Z,101179.04
2022-12-03T17:10:56.493Z,101169.80
2022-12-03T17:13:24.155Z,101168.92
2022-12-03T17:15:51.423Z,101172.54
2022-12-03T17:18:18.931Z,101167.95
2022-12-03T17:20:46.236Z,101164.91
2022-12-03T17:23:13.359Z,101162.38
2022-12-03T17:25:40.647Z,101164.80
2022-12-03T17:28:08.193Z,101168.92
2022-12-03T17:30:37.599Z,101164.27
2022-12-03T17:33:05.353Z,101163.44
2022-12-03T17:35:32.617Z,101163.77
2022-12-03T17:37:59.712Z,101161.35
2022-12-03T17:40:27.624Z,101162.23
2022-12-03T17:42:54.874Z,101162.52
2022-12-03T17:45:22.232Z,101164.63
2022-12-03T17:47:49.487Z,101165.80
2022-12-03T17:50:16.865Z,101161.06
2022-12-03T17:52:44.109Z,101161.40
2022-12-03T17:55:16.367Z,101168.57
2022-12-03T17:57:50.997Z,101163.02
2022-12-03T18:00:18.996Z,101169.83
2022-12-03T18:02:46.481Z,101171.04
2022-12-03T18:05:14.250Z,101171.20
2022-12-03T18:07:41.785Z,101171.38
2022-12-03T18:10:11.155Z,101172.87
2022-12-03T18:12:38.501Z,101164.70
2022-12-03T18:15:06.709Z,101156.13
2022-12-03T18:17:33.930Z,101148.19
2022-12-03T18:20:01.796Z,101143.08
2022-12-03T18:22:29.146Z,101141.04
2022-12-03T18:24:57.218Z,101140.31
2022-12-03T18:27:24.801Z,101137.87
2022-12-03T18:29:52.292Z,101134.41
2022-12-03T18:32:28.972Z,101135.41
2022-12-03T18:34:57.707Z,101131.27
2022-12-03T18:37:27.121Z,101132.14
2022-12-03T18:39:57.897Z,101134.52
2022-12-03T18:42:25.906Z,101135.34
2022-12-03T18:44:54.807Z,101141.00
2022-12-03T18:47:24.118Z,101149.73
2022-12-03T18:49:52.654Z,101150.77
2022-12-03T18:52:21.781Z,101149.64
2022-12-03T18:54:49.543Z,101152.77
2022-12-03T18:57:18.329Z,101158.78
2022-12-03T18:59:45.688Z,101162.81
2022-12-03T19:05:10.868Z,101165.33
2022-12-03T19:07:38.270Z,101163.08
2022-12-03T19:10:06.627Z,101160.66
2022-12-03T19:12:34.306Z,101157.88
2022-12-03T19:15:01.662Z,101159.25
2022-12-03T19:17:28.892Z,101155.96
2022-12-03T19:19:56.526Z,101155.76
2022-12-03T19:22:24.953Z,101157.77
2022-12-03T19:24:52.111Z,101153.83
2022-12-03T19:27:19.692Z,101156.58
2022-12-03T19:29:51.050Z,101160.85
2022-12-03T19:32:18.265Z,101168.08
2022-12-03T19:34:45.530Z,101163.50
2022-12-03T19:37:12.774Z,101159.30
2022-12-03T19:39:40.092Z,101159.50
2022-12-03T19:42:07.494Z,101159.01
2022-12-03T19:44:34.835Z,101160.56
2022-12-03T19:47:02.356Z,101158.20
2022-12-03T19:49:29.527Z,101153.95
2022-12-03T19:51:58.207Z,101163.95
2022-12-03T19:54:25.588Z,101170.20
2022-12-03T19:56:52.792Z,101169.49
2022-12-03T19:59:19.964Z,101176.56
2022-12-03T20:01:47.232Z,101173.36
2022-12-03T20:04:15.220Z,101170.86
2022-12-03T20:06:43.001Z,101171.41
2022-12-03T20:09:12.523Z,101169.70
2022-12-03T20:11:41.289Z,101167.31
2022-12-03T20:14:12.354Z,101156.00
2022-12-03T20:16:42.213Z,101153.26
2022-12-03T20:19:15.420Z,101151.90
2022-12-03T20:21:43.289Z,101154.89
2022-12-03T20:24:13.925Z,101149.41
2022-12-03T20:26:41.729Z,101142.91
2022-12-03T20:29:09.038Z,101135.89
2022-12-03T20:31:36.346Z,101140.04
2022-12-03T20:34:04.993Z,101141.73
2022-12-03T20:36:33.568Z,101152.53
2022-12-03T20:39:03.401Z,101151.88
2022-12-03T20:41:31.674Z,101150.24
2022-12-03T20:43:58.693Z,101154.68
2022-12-03T20:46:27.467Z,101170.15
2022-12-03T20:48:55.255Z,101162.20
2022-12-03T20:51:26.635Z,101164.03
2022-12-03T20:53:55.597Z,101168.61
2022-12-03T20:56:25.061Z,101166.83
2022-12-03T20:58:53.394Z,101166.79
2022-12-03T21:01:22.635Z,101174.13
2022-12-03T21:03:51.109Z,101180.88
2022-12-03T21:06:19.740Z,101175.36
2022-12-03T21:08:48.085Z,101169.17
2022-12-03T21:11:17.370Z,101165.02
2022-12-03T21:13:44.895Z,101161.33
2022-12-03T21:16:14.588Z,101167.23
2022-12-03T21:18:41.945Z,101175.82
2022-12-03T21:21:11.470Z,101172.96
2022-12-03T21:23:38.982Z,101173.38
2022-12-03T21:26:08.246Z,101180.69
2022-12-03T21:28:35.764Z,101183.59
2022-12-03T21:31:08.508Z,101172.14
2022-12-03T21:33:37.037Z,101170.59
2022-12-03T21:36:05.515Z,101166.64
2022-12-03T21:38:33.352Z,101164.66
2022-12-03T21:41:02.167Z,101176.91
2022-12-03T21:43:30.653Z,101180.33
2022-12-03T21:45:57.973Z,101179.96
2022-12-03T21:48:25.669Z,101180.34
2022-12-03T21:51:03.774Z,101181.04
2022-12-03T21:53:32.243Z,101197.11
2022-12-03T21:56:00.257Z,101183.52
2022-12-03T21:58:27.381Z,101184.67
2022-12-03T22:00:54.949Z,101183.76
2022-12-03T22:03:22.911Z,101186.13
2022-12-03T22:05:50.263Z,101180.01
2022-12-03T22:08:18.228Z,101175.64
2022-12-03T22:10:45.921Z,101176.80
2022-12-03T22:13:13.223Z,101175.13
2022-12-03T22:15:42.302Z,101184.22
2022-12-03T22:18:09.592Z,101180.42
2022-12-03T22:20:36.742Z,101174.55
2022-12-03T22:23:04.072Z,101172.98
2022-12-03T22:25:31.863Z,101170.61
2022-12-03T22:27:59.014Z,101167.48
2022-12-03T22:30:26.476Z,101162.13
2022-12-03T22:32:53.621Z,101162.61
2022-12-03T22:35:20.796Z,101160.71
2022-12-03T22:37:48.228Z,101163.44
2022-12-03T22:40:16.612Z,101163.26
2022-12-03T22:42:49.341Z,101165.45
2022-12-03T22:45:18.383Z,101155.86
2022-12-03T22:47:45.534Z,101151.10
2022-12-03T22:50:13.444Z,101154.34
2022-12-03T22:52:40.667Z,101158.94
2022-12-03T22:55:10.645Z,101161.36
2022-12-03T22:57:37.767Z,101156.53
2022-12-03T23:00:08.901Z,101149.73
2022-12-03T23:02:36.277Z,101157.91
2022-12-03T23:05:04.112Z,101148.23
2022-12-03T23:07:31.388Z,101146.95
2022-12-03T23:09:58.744Z,101153.52
2022-12-03T23:12:25.867Z,101151.06
2022-12-03T23:14:55.903Z,101158.58
2022-12-03T23:17:23.281Z,101159.20
2022-12-03T23:19:50.671Z,101164.29
2022-12-03T23:22:18.029Z,101157.55
2022-12-03T23:24:45.096Z,101156.72
2022-12-03T23:27:12.207Z,101161.39
2022-12-03T23:29:39.566Z,101163.62
2022-12-03T23:32:06.850Z,101157.85
2022-12-03T23:34:33.721Z,101143.65
2022-12-03T23:37:01.039Z,101146.02
2022-12-03T23:39:28.182Z,101144.80
2022-12-03T23:41:55.535Z,101139.66
2022-12-03T23:44:22.795Z,101138.23
2022-12-03T23:46:50.040Z,101141.27
2022-12-03T23:49:17.350Z,101141.57
2022-12-03T23:51:44.449Z,101138.66
2022-12-03T23:54:12.433Z,101138.32
2022-12-03T23:56:39.570Z,101138.11
2022-12-03T23:59:06.962Z,101139.80
